Black Mesa, Arizona
Current Conditions -  °F | °C
As of 10:35 PM on Monday 26 Jan 2015 (Local Time) from KBDG Reporting Station
Clear Clear  
Wind Chill:   Ceiling: Unl
Heat Index:   Visibility: 10mi
Dew Point: -4°   Wind: 9mph
Humidity: 54%   Direction: 30°NNE
Pressure: 30.39"   Gusts: NA
Location:  36.6859°N, 110.268°W
Report Text: KBDG 270535Z AUTO 03008KT 10SM CLR 05/M04 A3039 RMK AO1 T00471038
Loading
Personal Weather Stations






























Interactive Weather Map New forecast layout! Learn more

10-Day Weather Forecast

Advertisements
Track Severe Weather on mobile